createdAt,value
2018-04-28T00:02:51.430Z,11.70
2018-04-28T00:05:53.492Z,11.70
2018-04-28T00:08:55.617Z,11.60
2018-04-28T00:11:57.697Z,11.60
2018-04-28T00:14:59.826Z,11.50
2018-04-28T00:18:01.884Z,11.50
2018-04-28T00:21:03.929Z,11.50
2018-04-28T00:24:06.826Z,11.50
2018-04-28T00:27:14.512Z,11.50
2018-04-28T00:30:24.875Z,11.40
2018-04-28T00:33:42.609Z,11.40
2018-04-28T00:40:41.141Z,11.30
2018-04-28T00:43:43.220Z,11.20
2018-04-28T00:47:00.920Z,11.20
2018-04-28T00:50:10.617Z,11.10
2018-04-28T00:53:12.647Z,11.10
2018-04-28T00:56:16.301Z,11.10
2018-04-28T00:59:20.197Z,11.10
2018-04-28T01:02:24.175Z,11.10
2018-04-28T01:05:42.786Z,11.20
2018-04-28T01:08:44.885Z,11.20
2018-04-28T01:11:47.104Z,11.20
2018-04-28T01:14:49.373Z,11.20
2018-04-28T01:17:56.719Z,11.20
2018-04-28T01:21:01.649Z,11.20
2018-04-28T01:24:06.156Z,11.20
2018-04-28T01:27:27.791Z,11.20
2018-04-28T01:30:29.918Z,11.10
2018-04-28T01:33:54.321Z,11.10
2018-04-28T01:37:18.165Z,11.00
2018-04-28T01:40:22.964Z,11.00
2018-04-28T01:43:41.530Z,11.00
2018-04-28T01:46:59.171Z,10.90
2018-04-28T01:50:02.165Z,10.90
2018-04-28T01:53:04.312Z,10.80
2018-04-28T01:56:16.293Z,10.80
2018-04-28T01:59:26.171Z,10.90
2018-04-28T02:02:39.084Z,10.80
2018-04-28T02:05:45.747Z,10.80
2018-04-28T02:08:52.563Z,10.80
2018-04-28T02:12:10.205Z,10.80
2018-04-28T02:15:13.165Z,10.80
2018-04-28T02:18:21.287Z,10.70
2018-04-28T02:21:29.843Z,10.80
2018-04-28T02:28:18.701Z,10.80
2018-04-28T02:31:23.736Z,10.70
2018-04-28T02:34:45.660Z,10.70
2018-04-28T02:37:48.490Z,10.60
2018-04-28T02:41:05.354Z,10.60
2018-04-28T02:44:08.928Z,10.60
2018-04-28T02:47:15.870Z,10.60
2018-04-28T02:50:21.657Z,10.50
2018-04-28T02:53:24.687Z,10.40
2018-04-28T02:56:29.421Z,10.50
2018-04-28T03:03:22.268Z,10.40
2018-04-28T03:06:27.795Z,10.40
2018-04-28T03:09:29.910Z,10.40
2018-04-28T03:12:32.688Z,10.40
2018-04-28T03:15:34.749Z,10.40
2018-04-28T03:18:36.862Z,10.40
2018-04-28T03:21:43.602Z,10.40
2018-04-28T03:24:53.373Z,10.40
2018-04-28T03:28:32.821Z,10.30
2018-04-28T03:31:38.502Z,10.20
2018-04-28T03:34:44.391Z,10.20
2018-04-28T03:38:07.185Z,10.20
2018-04-28T03:41:16.962Z,10.20
2018-04-28T03:44:49.480Z,10.20
2018-04-28T03:48:01.052Z,10.20
2018-04-28T03:51:09.801Z,10.20
2018-04-28T03:54:15.591Z,10.10
2018-04-28T03:57:38.315Z,10.00
2018-04-28T04:00:52.064Z,10.10
2018-04-28T04:04:00.808Z,10.10
2018-04-28T04:07:24.400Z,10.10
2018-04-28T04:10:30.181Z,10.00
2018-04-28T04:13:45.155Z,10.10
2018-04-28T04:16:56.961Z,10.10
2018-04-28T04:23:31.942Z,10.30
2018-04-28T04:26:47.507Z,10.30
2018-04-28T04:33:35.436Z,10.40
2018-04-28T04:36:49.590Z,10.40
2018-04-28T04:43:43.698Z,10.60
2018-04-28T04:46:57.248Z,10.70
2018-04-28T04:50:07.211Z,10.80
2018-04-28T04:53:19.826Z,10.80
2018-04-28T04:56:35.333Z,10.90
2018-04-28T04:59:44.144Z,11.10
2018-04-28T05:06:28.907Z,12.30
2018-04-28T05:09:41.397Z,15.00
2018-04-28T05:12:55.340Z,15.00
2018-04-28T05:15:58.103Z,16.20
2018-04-28T05:22:43.099Z,18.00
2018-04-28T05:25:49.966Z,18.50
2018-04-28T05:32:50.291Z,18.90
2018-04-28T05:35:58.212Z,18.70
2018-04-28T05:39:08.158Z,19.30
2018-04-28T05:46:08.458Z,21.10
2018-04-28T05:49:21.445Z,21.80
2018-04-28T05:52:44.211Z,22.60
2018-04-28T05:56:05.713Z,23.40
2018-04-28T05:59:22.331Z,24.80
2018-04-28T06:02:29.422Z,24.70
2018-04-28T06:05:58.785Z,25.50
2018-04-28T06:09:04.784Z,26.00
2018-04-28T06:12:17.700Z,26.80
2018-04-28T06:15:37.507Z,27.30
2018-04-28T06:22:07.806Z,28.20
2018-04-28T06:25:10.831Z,28.60
2018-04-28T06:28:13.599Z,29.00
2018-04-28T06:31:15.644Z,28.90
2018-04-28T06:34:17.650Z,29.40
2018-04-28T06:37:19.852Z,29.80
2018-04-28T06:40:21.877Z,30.50
2018-04-28T06:43:23.879Z,31.20
2018-04-28T06:46:26.013Z,31.60
2018-04-28T06:49:28.132Z,32.20
2018-04-28T06:52:30.310Z,32.80
2018-04-28T06:55:32.331Z,33.40
2018-04-28T06:58:34.507Z,33.50
2018-04-28T07:01:36.522Z,33.70
2018-04-28T07:04:38.551Z,34.10
2018-04-28T07:07:40.600Z,34.70
2018-04-28T07:10:42.589Z,34.90
2018-04-28T07:13:44.805Z,35.50
2018-04-28T07:16:46.815Z,36.20
2018-04-28T07:19:49.783Z,36.90
2018-04-28T07:22:51.821Z,36.80
2018-04-28T07:25:53.854Z,37.20
2018-04-28T07:28:55.867Z,37.80
2018-04-28T07:31:57.936Z,38.10
2018-04-28T07:34:59.987Z,37.60
2018-04-28T07:38:02.058Z,37.70
2018-04-28T07:41:04.095Z,38.40
2018-04-28T07:44:06.103Z,38.70
2018-04-28T07:47:08.573Z,38.60
2018-04-28T07:50:10.656Z,38.00
2018-04-28T07:53:12.677Z,37.80
2018-04-28T07:56:14.747Z,38.50
2018-04-28T07:59:16.807Z,39.20
2018-04-28T08:02:18.815Z,38.80
2018-04-28T08:05:20.844Z,39.60
2018-04-28T08:08:23.137Z,39.10
2018-04-28T08:11:25.917Z,40.00
2018-04-28T08:14:28.078Z,40.00
2018-04-28T08:17:30.114Z,40.60
2018-04-28T08:20:32.101Z,40.20
2018-04-28T08:23:34.318Z,39.60
2018-04-28T08:26:36.496Z,40.20
2018-04-28T08:29:38.784Z,40.90
2018-04-28T08:32:40.806Z,40.60
2018-04-28T08:35:44.339Z,41.40
2018-04-28T08:38:46.385Z,41.40
2018-04-28T08:41:48.373Z,41.60
2018-04-28T08:44:51.147Z,41.10
2018-04-28T08:47:53.180Z,41.00
2018-04-28T08:50:55.188Z,39.90
2018-04-28T08:53:58.009Z,40.60
2018-04-28T08:57:00.047Z,40.60
2018-04-28T09:00:13.896Z,41.80
2018-04-28T09:03:16.681Z,41.30
2018-04-28T09:06:18.690Z,41.20
2018-04-28T09:09:21.756Z,42.00
2018-04-28T09:12:23.822Z,42.90
2018-04-28T09:15:25.820Z,43.30
2018-04-28T09:18:27.836Z,44.30
2018-04-28T09:21:30.633Z,44.50
2018-04-28T09:24:33.419Z,45.40
2018-04-28T09:27:35.432Z,45.30
2018-04-28T09:30:37.558Z,44.60
2018-04-28T09:33:39.579Z,43.90
2018-04-28T09:36:41.848Z,43.50
2018-04-28T09:39:43.884Z,43.90
2018-04-28T09:42:45.905Z,44.50
2018-04-28T09:45:47.900Z,45.30
2018-04-28T09:48:49.940Z,44.70
2018-04-28T09:51:52.263Z,44.10
2018-04-28T09:54:54.387Z,44.00
2018-04-28T09:58:05.128Z,43.90
2018-04-28T10:01:07.119Z,45.10
2018-04-28T10:04:09.130Z,45.50
2018-04-28T10:07:11.160Z,45.50
2018-04-28T10:10:14.673Z,45.50
2018-04-28T10:13:16.671Z,45.50
2018-04-28T10:16:19.447Z,46.10
2018-04-28T10:19:21.497Z,46.00
2018-04-28T10:22:23.523Z,46.10
2018-04-28T10:25:25.567Z,46.60
2018-04-28T10:28:27.613Z,46.50
2018-04-28T10:31:29.724Z,45.60
2018-04-28T10:34:31.803Z,42.80
2018-04-28T10:37:33.851Z,42.90
2018-04-28T10:40:35.874Z,44.40
2018-04-28T10:43:37.871Z,42.90
2018-04-28T10:46:39.891Z,40.90
2018-04-28T10:49:41.888Z,41.10
2018-04-28T10:52:43.934Z,43.00
2018-04-28T10:55:45.931Z,42.30
2018-04-28T10:58:48.238Z,43.20
2018-04-28T11:01:50.358Z,43.30
2018-04-28T11:04:52.358Z,43.50
2018-04-28T11:07:54.365Z,43.40
2018-04-28T11:10:56.561Z,43.20
2018-04-28T11:13:58.559Z,44.90
2018-04-28T11:17:00.562Z,44.60
2018-04-28T11:20:02.562Z,44.70
2018-04-28T11:23:04.577Z,44.10
2018-04-28T11:26:06.581Z,41.30
2018-04-28T11:29:08.602Z,40.20
2018-04-28T11:32:11.359Z,39.90
2018-04-28T11:35:13.403Z,39.90
2018-04-28T11:38:15.414Z,40.70
2018-04-28T11:41:17.413Z,40.90
2018-04-28T11:44:19.423Z,40.00
2018-04-28T11:47:21.417Z,40.00
2018-04-28T11:50:23.449Z,40.50
2018-04-28T11:53:25.488Z,41.50
2018-04-28T11:56:28.221Z,41.70
2018-04-28T11:59:30.225Z,42.10
2018-04-28T12:02:32.293Z,42.60
2018-04-28T12:05:35.783Z,41.10
2018-04-28T12:08:37.823Z,41.10
2018-04-28T12:11:39.833Z,40.60
2018-04-28T12:14:42.605Z,42.10
2018-04-28T12:17:44.605Z,42.20
2018-04-28T12:20:46.612Z,42.70
2018-04-28T12:23:48.641Z,40.70
2018-04-28T12:26:50.727Z,40.20
2018-04-28T12:29:52.860Z,41.40
2018-04-28T12:32:54.796Z,41.60
2018-04-28T12:35:56.845Z,39.90
2018-04-28T12:38:58.857Z,40.10
2018-04-28T12:42:00.852Z,41.50
2018-04-28T12:45:02.902Z,41.80
2018-04-28T12:48:04.905Z,42.50
2018-04-28T12:51:06.932Z,43.10
2018-04-28T12:54:09.694Z,41.30
2018-04-28T12:57:11.698Z,41.20
2018-04-28T13:00:14.463Z,37.60
2018-04-28T13:03:17.436Z,37.50
2018-04-28T13:06:19.437Z,37.40
2018-04-28T13:09:21.447Z,35.80
2018-04-28T13:12:23.479Z,33.40
2018-04-28T13:15:25.482Z,31.10
2018-04-28T13:18:27.541Z,30.40
2018-04-28T13:21:29.563Z,29.90
2018-04-28T13:24:31.749Z,29.40
2018-04-28T13:27:33.789Z,28.60
2018-04-28T13:30:35.881Z,27.90
2018-04-28T13:33:37.895Z,27.60
2018-04-28T13:36:40.005Z,27.10
2018-04-28T13:39:41.997Z,26.70
2018-04-28T13:42:44.780Z,26.90
2018-04-28T13:45:46.777Z,26.90
2018-04-28T13:48:48.800Z,26.90
2018-04-28T13:51:50.805Z,26.80
2018-04-28T13:54:52.879Z,26.90
2018-04-28T13:57:54.899Z,26.50
2018-04-28T14:00:56.918Z,26.60
2018-04-28T14:03:58.919Z,26.50
2018-04-28T14:07:00.999Z,26.40
2018-04-28T14:10:03.041Z,26.50
2018-04-28T14:13:05.047Z,26.70
2018-04-28T14:16:07.041Z,26.70
2018-04-28T14:19:09.831Z,27.10
2018-04-28T14:22:11.825Z,27.10
2018-04-28T14:25:13.840Z,27.00
2018-04-28T14:28:15.871Z,27.00
2018-04-28T14:31:17.945Z,26.80
2018-04-28T14:34:19.954Z,26.60
2018-04-28T14:37:22.003Z,26.60
2018-04-28T14:40:23.993Z,26.70
2018-04-28T14:43:26.000Z,26.70
2018-04-28T14:46:28.002Z,26.60
2018-04-28T14:49:30.018Z,26.20
2018-04-28T14:52:32.118Z,26.20
2018-04-28T14:55:34.102Z,26.30
2018-04-28T14:58:36.141Z,26.50
2018-04-28T15:01:38.205Z,26.60
2018-04-28T15:04:40.241Z,26.70
2018-04-28T15:07:42.216Z,27.00
2018-04-28T15:10:44.239Z,27.30
2018-04-28T15:13:46.570Z,27.40
2018-04-28T15:16:48.775Z,27.60
2018-04-28T15:19:50.712Z,27.70
2018-04-28T15:22:52.788Z,27.60
2018-04-28T15:25:54.730Z,27.60
2018-04-28T15:28:56.748Z,27.50
2018-04-28T15:31:58.800Z,27.40
2018-04-28T15:35:00.903Z,27.30
2018-04-28T15:38:02.833Z,27.30
2018-04-28T15:41:04.866Z,27.20
2018-04-28T15:44:06.895Z,26.90
2018-04-28T15:47:08.928Z,26.60
2018-04-28T15:50:10.961Z,26.30
2018-04-28T15:53:13.586Z,26.00
2018-04-28T15:56:15.650Z,25.80
2018-04-28T15:59:18.645Z,25.70
2018-04-28T16:02:20.649Z,25.70
2018-04-28T16:05:22.649Z,25.60
2018-04-28T16:08:26.157Z,25.40
2018-04-28T16:11:28.259Z,25.40
2018-04-28T16:14:30.272Z,25.40
2018-04-28T16:17:32.400Z,25.40
2018-04-28T16:20:34.591Z,25.40
2018-04-28T16:23:36.637Z,25.50
2018-04-28T16:26:38.695Z,25.40
2018-04-28T16:29:41.481Z,25.40
2018-04-28T16:32:43.661Z,25.40
2018-04-28T16:35:45.887Z,25.40
2018-04-28T16:38:47.878Z,25.20
2018-04-28T16:41:49.879Z,24.80
2018-04-28T16:44:51.886Z,24.60
2018-04-28T16:47:53.899Z,24.60
2018-04-28T16:50:55.931Z,24.50
2018-04-28T16:53:57.958Z,24.40
2018-04-28T16:56:59.936Z,24.40
2018-04-28T17:00:02.791Z,24.30
2018-04-28T17:03:04.795Z,24.40
2018-04-28T17:06:06.798Z,24.50
2018-04-28T17:09:08.814Z,24.40
2018-04-28T17:12:10.982Z,24.40
2018-04-28T17:15:12.996Z,24.40
2018-04-28T17:18:15.016Z,24.40
2018-04-28T17:21:17.005Z,24.40
2018-04-28T17:24:19.018Z,24.40
2018-04-28T17:27:21.045Z,24.30
2018-04-28T17:30:23.086Z,24.30
2018-04-28T17:33:25.103Z,24.10
2018-04-28T17:36:27.097Z,24.00
2018-04-28T17:39:29.126Z,23.90
2018-04-28T17:42:31.110Z,23.80
2018-04-28T17:45:33.120Z,23.70
2018-04-28T17:48:35.876Z,23.50
2018-04-28T17:51:39.393Z,23.30
2018-04-28T17:54:41.378Z,23.30
2018-04-28T17:57:44.199Z,23.10
2018-04-28T18:00:46.205Z,23.10
2018-04-28T18:03:48.922Z,23.00
2018-04-28T18:06:51.057Z,22.90
2018-04-28T18:09:53.886Z,22.60
2018-04-28T18:12:55.887Z,22.60
2018-04-28T18:19:29.215Z,22.40
2018-04-28T18:22:31.978Z,22.30
2018-04-28T18:25:34.097Z,22.20
2018-04-28T18:28:36.191Z,22.10
2018-04-28T18:31:38.190Z,22.00
2018-04-28T18:34:40.188Z,22.00
2018-04-28T18:37:43.021Z,21.80
2018-04-28T18:40:45.035Z,21.80
2018-04-28T18:43:47.051Z,21.80
2018-04-28T18:46:49.051Z,21.70
2018-04-28T18:49:51.075Z,21.50
2018-04-28T18:52:53.068Z,21.40
2018-04-28T18:55:55.084Z,21.30
2018-04-28T18:58:57.843Z,21.00
2018-04-28T19:01:59.850Z,21.00
2018-04-28T19:05:02.011Z,20.90
2018-04-28T19:08:04.107Z,20.80
2018-04-28T19:11:06.133Z,20.60
2018-04-28T19:14:08.211Z,20.50
2018-04-28T19:17:10.205Z,20.40
2018-04-28T19:20:12.244Z,20.30
2018-04-28T19:23:15.013Z,20.10
2018-04-28T19:26:16.998Z,20.10
2018-04-28T19:29:19.848Z,19.90
2018-04-28T19:32:21.874Z,19.90
2018-04-28T19:35:23.949Z,19.80
2018-04-28T19:38:26.224Z,19.70
2018-04-28T19:41:28.241Z,19.70
2018-04-28T19:44:30.251Z,19.60
2018-04-28T19:47:33.029Z,19.50
2018-04-28T19:50:35.079Z,19.40
2018-04-28T19:53:37.084Z,19.40
2018-04-28T19:56:39.097Z,19.20
2018-04-28T19:59:41.105Z,19.20
2018-04-28T20:02:43.108Z,19.10
2018-04-28T20:05:45.121Z,19.00
2018-04-28T20:08:47.137Z,18.90
2018-04-28T20:11:49.183Z,18.80
2018-04-28T20:14:51.184Z,18.70
2018-04-28T20:17:53.272Z,18.60
2018-04-28T20:20:55.234Z,18.60
2018-04-28T20:24:09.103Z,18.50
2018-04-28T20:27:11.108Z,18.40
2018-04-28T20:30:13.192Z,18.40
2018-04-28T20:33:15.227Z,18.30
2018-04-28T20:36:18.016Z,18.20
2018-04-28T20:39:20.028Z,18.20
2018-04-28T20:42:22.071Z,18.10
2018-04-28T20:45:24.095Z,18.10
2018-04-28T20:48:26.119Z,18.00
2018-04-28T20:51:28.278Z,17.90
2018-04-28T20:54:30.315Z,17.80
2018-04-28T20:57:33.086Z,17.60
2018-04-28T21:00:35.085Z,17.60
2018-04-28T21:03:37.846Z,17.60
2018-04-28T21:06:39.866Z,17.60
2018-04-28T21:09:41.847Z,17.50
2018-04-28T21:12:44.100Z,17.40
2018-04-28T21:15:46.126Z,17.40
2018-04-28T21:18:49.650Z,17.30
2018-04-28T21:21:51.637Z,17.30
2018-04-28T21:24:53.805Z,17.30
2018-04-28T21:27:55.843Z,17.30
2018-04-28T21:30:58.618Z,17.20
2018-04-28T21:34:01.336Z,17.20
2018-04-28T21:37:04.157Z,17.10
2018-04-28T21:40:06.265Z,17.10
2018-04-28T21:43:08.272Z,17.00
2018-04-28T21:46:10.258Z,17.00
2018-04-28T21:49:12.476Z,17.00
2018-04-28T21:52:14.473Z,16.90
2018-04-28T21:55:16.527Z,16.90
2018-04-28T21:58:18.528Z,16.80
2018-04-28T22:01:20.526Z,16.70
2018-04-28T22:04:22.544Z,16.60
2018-04-28T22:07:24.628Z,16.60
2018-04-28T22:10:26.788Z,16.50
2018-04-28T22:13:29.586Z,16.50
2018-04-28T22:16:31.596Z,16.40
2018-04-28T22:19:33.594Z,16.40
2018-04-28T22:22:36.406Z,16.20
2018-04-28T22:25:38.442Z,16.20
2018-04-28T22:28:40.469Z,16.20
2018-04-28T22:31:42.464Z,16.20
2018-04-28T22:34:44.497Z,16.10
2018-04-28T22:37:46.487Z,16.10
2018-04-28T22:40:48.510Z,16.00
2018-04-28T22:43:50.507Z,16.00
2018-04-28T22:46:52.527Z,15.90
2018-04-28T22:49:54.516Z,15.90
2018-04-28T22:52:56.545Z,15.90
2018-04-28T22:55:58.542Z,15.80
2018-04-28T22:59:00.546Z,15.70
2018-04-28T23:02:02.596Z,15.80
2018-04-28T23:05:04.629Z,15.70
2018-04-28T23:08:06.651Z,15.70
2018-04-28T23:11:08.648Z,15.80
2018-04-28T23:14:10.709Z,15.70
2018-04-28T23:17:12.687Z,15.70
2018-04-28T23:20:14.866Z,15.60
2018-04-28T23:23:16.880Z,15.60
2018-04-28T23:26:18.880Z,15.50
2018-04-28T23:29:20.866Z,15.40
2018-04-28T23:32:22.894Z,15.50
2018-04-28T23:35:24.872Z,15.50
2018-04-28T23:38:26.882Z,15.40
2018-04-28T23:41:28.908Z,15.40
2018-04-28T23:44:31.145Z,15.40
2018-04-28T23:47:33.930Z,15.30
2018-04-28T23:50:36.192Z,15.30
2018-04-28T23:53:38.219Z,15.20
2018-04-28T23:56:40.251Z,15.20
2018-04-28T23:59:42.346Z,15.20
